createdAt,value
2022-10-17T00:00:52.332Z,26.53
2022-10-17T00:03:20.297Z,24.30
2022-10-17T00:05:50.213Z,25.60
2022-10-17T00:08:19.920Z,26.43
2022-10-17T00:10:57.366Z,28.80
2022-10-17T00:13:25.950Z,28.27
2022-10-17T00:15:54.011Z,28.43
2022-10-17T00:18:22.097Z,28.87
2022-10-17T00:20:51.908Z,29.63
2022-10-17T00:23:20.282Z,29.67
2022-10-17T00:25:48.415Z,30.33
2022-10-17T00:28:17.272Z,32.30
2022-10-17T00:30:45.280Z,32.60
2022-10-17T00:33:13.249Z,33.83
2022-10-17T00:35:41.254Z,32.83
2022-10-17T00:38:10.561Z,33.10
2022-10-17T00:40:38.535Z,33.60
2022-10-17T00:43:07.491Z,33.40
2022-10-17T00:45:35.624Z,33.30
2022-10-17T00:48:09.101Z,35.53
2022-10-17T00:50:39.426Z,35.40
2022-10-17T00:53:09.471Z,34.00
2022-10-17T00:55:43.595Z,33.90
2022-10-17T00:58:11.989Z,33.77
2022-10-17T01:00:39.949Z,34.30
2022-10-17T01:03:07.991Z,33.50
2022-10-17T01:05:38.056Z,31.17
2022-10-17T01:08:07.163Z,30.67
2022-10-17T01:10:46.867Z,30.73
2022-10-17T01:13:23.153Z,29.50
2022-10-17T01:16:06.861Z,28.30
2022-10-17T01:18:49.989Z,27.43
2022-10-17T01:21:39.437Z,27.10
2022-10-17T01:24:47.122Z,30.37
2022-10-17T01:27:41.560Z,30.63
2022-10-17T01:30:27.768Z,27.03
2022-10-17T01:33:00.037Z,28.13
2022-10-17T01:35:33.871Z,26.50
2022-10-17T01:38:09.195Z,26.40
2022-10-17T01:40:41.741Z,27.20
2022-10-17T01:43:16.299Z,26.83
2022-10-17T01:45:50.870Z,26.50
2022-10-17T01:48:23.605Z,25.40
2022-10-17T01:50:54.849Z,25.57
2022-10-17T01:53:29.500Z,24.90
2022-10-17T01:56:02.319Z,24.70
2022-10-17T01:58:34.599Z,25.70
2022-10-17T02:01:06.051Z,25.97
2022-10-17T02:03:36.714Z,26.27
2022-10-17T02:06:07.444Z,27.00
2022-10-17T02:08:43.315Z,27.30
2022-10-17T02:11:16.548Z,28.33
2022-10-17T02:14:14.911Z,28.17
2022-10-17T02:16:48.409Z,28.83
2022-10-17T02:19:35.812Z,28.13
2022-10-17T02:22:16.144Z,24.80
2022-10-17T02:24:53.741Z,26.07
2022-10-17T02:27:33.545Z,25.47
2022-10-17T02:30:07.352Z,24.00
2022-10-17T02:32:41.430Z,22.70
2022-10-17T02:35:16.644Z,25.10
2022-10-17T02:37:48.241Z,26.00
2022-10-17T02:40:19.908Z,25.63
2022-10-17T02:42:48.306Z,27.00
2022-10-17T02:45:17.760Z,27.17
2022-10-17T02:47:54.108Z,28.10
2022-10-17T02:50:33.159Z,27.73
2022-10-17T02:53:05.686Z,28.43
2022-10-17T02:55:37.474Z,29.20
2022-10-17T02:58:09.878Z,29.43
2022-10-17T03:00:40.122Z,28.53
2022-10-17T03:03:20.608Z,28.90
2022-10-17T03:05:50.052Z,29.30
2022-10-17T03:08:18.076Z,26.77
2022-10-17T03:10:46.140Z,25.60
2022-10-17T03:13:14.764Z,25.53
2022-10-17T03:15:43.100Z,25.90
2022-10-17T03:18:11.048Z,28.13
2022-10-17T03:20:39.519Z,30.03
2022-10-17T03:23:09.050Z,29.37
2022-10-17T03:25:37.875Z,26.83
2022-10-17T03:28:06.878Z,27.30
2022-10-17T03:30:35.112Z,26.97
2022-10-17T03:33:03.412Z,26.67
2022-10-17T03:35:31.885Z,26.50
2022-10-17T03:38:00.532Z,27.57
2022-10-17T03:40:31.167Z,26.57
2022-10-17T03:42:59.242Z,26.33
2022-10-17T03:45:27.217Z,26.60
2022-10-17T03:47:55.378Z,26.73
2022-10-17T03:50:23.546Z,27.50
2022-10-17T03:52:51.615Z,28.60
2022-10-17T03:55:19.989Z,28.00
2022-10-17T03:57:49.942Z,30.57
2022-10-17T04:00:20.821Z,32.10
2022-10-17T04:02:55.700Z,33.83
2022-10-17T04:05:23.887Z,32.53
2022-10-17T04:07:51.985Z,32.17
2022-10-17T04:10:24.009Z,32.00
2022-10-17T04:12:54.032Z,31.43
2022-10-17T04:15:22.049Z,31.80
2022-10-17T04:17:50.521Z,30.97
2022-10-17T04:20:18.779Z,32.00
2022-10-17T04:22:46.850Z,33.23
2022-10-17T04:25:15.204Z,32.97
2022-10-17T04:27:46.617Z,33.00
2022-10-17T04:30:16.315Z,34.90
2022-10-17T04:32:44.539Z,37.60
2022-10-17T04:35:20.917Z,35.90
2022-10-17T04:37:55.171Z,34.33
2022-10-17T04:40:23.303Z,37.80
2022-10-17T04:42:54.403Z,37.90
2022-10-17T04:45:29.112Z,40.33
2022-10-17T04:48:01.393Z,43.53
2022-10-17T04:50:29.598Z,43.00
2022-10-17T04:53:15.940Z,44.73
2022-10-17T04:55:44.960Z,44.63
2022-10-17T04:58:13.074Z,43.73
2022-10-17T05:00:42.453Z,44.57
2022-10-17T05:03:22.777Z,45.07
2022-10-17T05:05:50.789Z,45.33
2022-10-17T05:08:19.073Z,43.10
2022-10-17T05:10:47.539Z,43.87
2022-10-17T05:13:16.470Z,44.53
2022-10-17T05:15:45.886Z,45.30
2022-10-17T05:18:14.230Z,49.70
2022-10-17T05:20:44.251Z,48.90
2022-10-17T05:23:12.357Z,48.73
2022-10-17T05:25:43.873Z,48.27
2022-10-17T05:28:12.735Z,47.33
2022-10-17T05:30:43.114Z,46.40
2022-10-17T05:33:12.845Z,44.97
2022-10-17T05:35:41.442Z,44.33
2022-10-17T05:38:09.466Z,42.87
2022-10-17T05:40:39.602Z,44.23
2022-10-17T05:43:07.770Z,44.33
2022-10-17T05:45:37.603Z,42.03
2022-10-17T05:48:06.720Z,42.50
2022-10-17T05:50:36.884Z,40.13
2022-10-17T05:53:10.402Z,38.90
2022-10-17T05:55:44.115Z,38.90
2022-10-17T05:58:21.796Z,38.57
2022-10-17T06:00:59.361Z,37.60
2022-10-17T06:03:28.668Z,37.67
2022-10-17T06:05:58.346Z,36.57
2022-10-17T06:08:26.394Z,38.17
2022-10-17T06:10:54.635Z,39.37
2022-10-17T06:13:22.810Z,39.70
2022-10-17T06:15:52.889Z,39.37
2022-10-17T06:18:21.112Z,39.33
2022-10-17T06:20:49.372Z,38.30
2022-10-17T06:23:20.994Z,39.13
2022-10-17T06:25:59.852Z,39.03
2022-10-17T06:28:28.107Z,38.30
2022-10-17T06:30:56.285Z,36.97
2022-10-17T06:33:24.412Z,37.97
2022-10-17T06:35:54.403Z,36.83
2022-10-17T06:38:25.210Z,36.87
2022-10-17T06:40:57.863Z,37.53
2022-10-17T06:43:27.961Z,35.27
2022-10-17T06:46:22.499Z,36.97
2022-10-17T06:48:57.457Z,35.30
2022-10-17T06:51:44.450Z,36.93
2022-10-17T06:54:16.623Z,34.87
2022-10-17T06:57:03.734Z,35.00
2022-10-17T06:59:41.643Z,35.13
2022-10-17T07:02:12.909Z,34.43
2022-10-17T07:04:40.982Z,34.87
2022-10-17T07:07:09.558Z,36.90
2022-10-17T07:09:39.157Z,34.40
2022-10-17T07:12:08.530Z,35.70
2022-10-17T07:14:36.913Z,34.27
2022-10-17T07:17:05.341Z,33.20
2022-10-17T07:19:34.393Z,32.10
2022-10-17T07:22:02.378Z,32.40
2022-10-17T07:24:31.633Z,33.40
2022-10-17T07:27:10.222Z,34.37
2022-10-17T07:29:39.165Z,34.43
2022-10-17T07:32:13.208Z,34.83
2022-10-17T07:34:41.585Z,34.40
2022-10-17T07:37:11.936Z,33.63
2022-10-17T07:39:42.858Z,33.57
2022-10-17T07:42:12.518Z,32.77
2022-10-17T07:44:40.467Z,33.80
2022-10-17T07:47:08.526Z,32.63
2022-10-17T07:49:42.448Z,31.90
2022-10-17T07:52:12.063Z,32.27
2022-10-17T07:54:40.099Z,32.67
2022-10-17T07:57:08.446Z,32.28
2022-10-17T07:59:38.995Z,31.63
2022-10-17T08:02:08.148Z,29.88
2022-10-17T08:04:36.829Z,31.30
2022-10-17T08:07:19.685Z,29.20
2022-10-17T08:09:49.929Z,29.73
2022-10-17T08:12:18.179Z,30.15
2022-10-17T08:14:48.231Z,28.85
2022-10-17T08:17:16.334Z,28.90
2022-10-17T08:19:44.253Z,28.30
2022-10-17T08:22:12.226Z,27.35
2022-10-17T08:24:40.199Z,25.50
2022-10-17T08:27:11.555Z,24.85
2022-10-17T08:29:39.830Z,24.88
2022-10-17T08:32:10.387Z,25.17
2022-10-17T08:34:38.463Z,25.27
2022-10-17T08:37:06.642Z,24.15
2022-10-17T08:39:34.655Z,22.10
2022-10-17T08:42:28.333Z,21.10
2022-10-17T08:45:07.519Z,21.48
2022-10-17T08:47:40.079Z,19.60
2022-10-17T08:50:13.731Z,17.65
2022-10-17T08:52:46.161Z,17.17
2022-10-17T08:55:17.086Z,15.05
2022-10-17T08:57:45.660Z,14.25
2022-10-17T09:00:18.533Z,12.85
2022-10-17T09:03:01.306Z,13.57
2022-10-17T09:05:48.011Z,13.75
2022-10-17T09:08:31.873Z,12.60
2022-10-17T09:11:06.557Z,14.80
2022-10-17T09:13:49.617Z,13.07
2022-10-17T09:16:47.409Z,11.30
2022-10-17T09:19:22.493Z,11.45
2022-10-17T09:21:54.873Z,11.10
2022-10-17T09:24:28.698Z,11.43
2022-10-17T09:26:57.645Z,10.77
2022-10-17T09:29:34.189Z,11.20
2022-10-17T09:32:09.885Z,11.48
2022-10-17T09:34:39.345Z,11.55
2022-10-17T09:37:14.658Z,11.50
2022-10-17T09:39:44.069Z,11.40
2022-10-17T09:42:15.699Z,11.85
2022-10-17T09:44:50.956Z,11.40
2022-10-17T09:47:31.001Z,12.45
2022-10-17T09:50:00.361Z,11.13
2022-10-17T09:52:31.704Z,12.07
2022-10-17T09:55:03.193Z,11.88
2022-10-17T09:57:58.045Z,11.18
2022-10-17T10:00:28.922Z,11.88
2022-10-17T10:03:16.628Z,11.00
2022-10-17T10:06:00.905Z,10.85
2022-10-17T10:08:31.632Z,10.60
2022-10-17T10:11:03.520Z,11.32
2022-10-17T10:13:34.170Z,10.50
2022-10-17T10:16:18.026Z,10.48
2022-10-17T10:18:48.708Z,11.10
2022-10-17T10:21:20.923Z,10.48
2022-10-17T10:24:06.224Z,10.63
2022-10-17T10:26:39.675Z,10.82
2022-10-17T10:29:23.652Z,10.63
2022-10-17T10:31:54.423Z,10.77
2022-10-17T10:34:25.260Z,10.38
2022-10-17T10:36:59.025Z,10.73
2022-10-17T10:39:45.992Z,10.77
2022-10-17T10:42:24.141Z,10.45
2022-10-17T10:44:56.000Z,10.73
2022-10-17T10:47:27.465Z,10.98
2022-10-17T10:50:19.367Z,10.05
2022-10-17T10:52:52.088Z,11.18
2022-10-17T10:55:27.386Z,10.57
2022-10-17T10:58:01.990Z,11.73
2022-10-17T11:00:33.990Z,10.98
2022-10-17T11:03:12.749Z,10.68
2022-10-17T11:05:46.781Z,10.15
2022-10-17T11:08:22.712Z,10.98
2022-10-17T11:11:03.202Z,10.15
2022-10-17T11:13:35.136Z,10.52
2022-10-17T11:16:17.126Z,10.75
2022-10-17T11:18:49.784Z,10.43
2022-10-17T11:21:26.628Z,10.88
2022-10-17T11:24:04.585Z,10.27
2022-10-17T11:26:42.924Z,11.25
2022-10-17T11:29:13.818Z,10.20
2022-10-17T11:31:48.498Z,10.85
2022-10-17T11:34:21.574Z,10.18
2022-10-17T11:37:00.834Z,9.38
2022-10-17T11:39:36.196Z,9.52
2022-10-17T11:42:08.012Z,9.93
2022-10-17T11:44:38.046Z,10.05
2022-10-17T11:47:24.140Z,10.35
2022-10-17T11:49:56.507Z,10.20
2022-10-17T11:52:55.546Z,9.73
2022-10-17T11:55:24.949Z,9.77
2022-10-17T11:58:03.111Z,9.27
2022-10-17T12:00:48.997Z,9.15
2022-10-17T12:03:32.514Z,9.07
2022-10-17T12:06:10.137Z,8.60
2022-10-17T12:08:50.127Z,9.88
2022-10-17T12:11:34.631Z,9.35
2022-10-17T12:14:05.815Z,10.63
2022-10-17T12:16:46.256Z,9.77
2022-10-17T12:19:28.576Z,9.57
2022-10-17T12:21:59.699Z,10.45
2022-10-17T12:24:35.854Z,9.85
2022-10-17T12:27:23.543Z,9.80
2022-10-17T12:29:59.235Z,10.07
2022-10-17T12:32:30.268Z,9.20
2022-10-17T12:35:06.976Z,10.43
2022-10-17T12:38:12.173Z,9.40
2022-10-17T12:40:55.332Z,10.23
2022-10-17T12:43:56.256Z,9.95
2022-10-17T12:46:56.686Z,10.27
2022-10-17T12:49:40.642Z,9.77
2022-10-17T12:52:25.743Z,10.30
2022-10-17T12:55:17.273Z,10.07
2022-10-17T12:57:52.710Z,8.93
2022-10-17T13:00:25.173Z,8.93
2022-10-17T13:02:56.505Z,8.77
2022-10-17T13:05:29.665Z,9.50
2022-10-17T13:08:02.111Z,9.18
2022-10-17T13:10:32.739Z,8.60
2022-10-17T13:13:07.754Z,9.93
2022-10-17T13:15:37.411Z,8.50
2022-10-17T13:18:06.411Z,8.98
2022-10-17T13:20:34.407Z,9.52
2022-10-17T13:23:04.366Z,8.85
2022-10-17T13:25:34.597Z,8.45
2022-10-17T13:28:07.033Z,8.38
2022-10-17T13:30:37.267Z,8.90
2022-10-17T13:33:20.142Z,9.45
2022-10-17T13:36:05.149Z,8.50
2022-10-17T13:38:40.311Z,8.63
2022-10-17T13:44:08.735Z,8.35
2022-10-17T13:46:39.351Z,8.75
2022-10-17T13:49:16.489Z,8.43
2022-10-17T13:51:46.386Z,9.23
2022-10-17T13:54:41.188Z,8.80
2022-10-17T13:57:20.856Z,8.45
2022-10-17T13:59:51.177Z,9.05
2022-10-17T14:02:22.042Z,9.00
2022-10-17T14:05:18.562Z,8.23
2022-10-17T14:08:10.853Z,9.15
2022-10-17T14:10:43.533Z,8.93
2022-10-17T14:13:22.106Z,8.80
2022-10-17T14:15:51.143Z,8.68
2022-10-17T14:18:22.792Z,10.02
2022-10-17T14:23:42.513Z,10.07
2022-10-17T14:26:16.013Z,9.20
2022-10-17T14:28:46.329Z,9.10
2022-10-17T14:31:22.654Z,10.13
2022-10-17T14:33:53.389Z,8.93
2022-10-17T14:36:22.802Z,9.38
2022-10-17T14:38:53.087Z,8.43
2022-10-17T14:41:43.573Z,9.13
2022-10-17T14:44:21.795Z,9.80
2022-10-17T14:46:54.732Z,9.45
2022-10-17T14:49:28.563Z,9.50
2022-10-17T14:52:28.390Z,9.50
2022-10-17T14:54:57.881Z,8.18
2022-10-17T14:57:36.156Z,9.45
2022-10-17T15:00:04.760Z,9.55
2022-10-17T15:02:33.022Z,9.38
2022-10-17T15:05:01.331Z,9.30
2022-10-17T15:07:29.554Z,9.73
2022-10-17T15:09:57.525Z,8.93
2022-10-17T15:12:28.467Z,9.98
2022-10-17T15:14:56.584Z,9.20
2022-10-17T15:17:27.505Z,8.60
2022-10-17T15:19:56.608Z,8.77
2022-10-17T15:22:25.344Z,8.73
2022-10-17T15:24:53.409Z,9.15
2022-10-17T15:27:23.527Z,9.18
2022-10-17T15:29:53.147Z,9.68
2022-10-17T15:32:21.292Z,9.18
2022-10-17T15:34:49.282Z,9.30
2022-10-17T15:37:22.046Z,9.77
2022-10-17T15:39:53.594Z,9.85
2022-10-17T15:42:23.145Z,8.75
2022-10-17T15:44:52.492Z,10.02
2022-10-17T15:47:25.738Z,9.32
2022-10-17T15:49:54.228Z,9.13
2022-10-17T15:52:22.464Z,9.32
2022-10-17T15:54:51.447Z,9.85
2022-10-17T15:57:21.512Z,9.48
2022-10-17T15:59:51.455Z,9.65
2022-10-17T16:02:23.051Z,9.77
2022-10-17T16:04:52.534Z,9.40
2022-10-17T16:07:21.620Z,10.05
2022-10-17T16:09:49.786Z,9.68
2022-10-17T16:14:56.818Z,10.27
2022-10-17T16:17:26.244Z,9.70
2022-10-17T16:19:54.444Z,10.80
2022-10-17T16:22:28.703Z,9.50
2022-10-17T16:24:59.328Z,10.40
2022-10-17T16:27:27.748Z,10.25
2022-10-17T16:29:55.699Z,9.40
2022-10-17T16:32:23.736Z,8.75
2022-10-17T16:34:53.035Z,9.73
2022-10-17T16:37:21.000Z,9.05
2022-10-17T16:39:52.564Z,8.88
2022-10-17T16:42:20.788Z,9.18
2022-10-17T16:44:49.353Z,8.75
2022-10-17T16:47:17.680Z,9.75
2022-10-17T16:49:45.780Z,9.52
2022-10-17T16:52:15.431Z,9.57
2022-10-17T16:54:43.573Z,10.00
2022-10-17T16:57:11.723Z,9.57
2022-10-17T16:59:39.817Z,10.55
2022-10-17T17:02:08.383Z,10.05
2022-10-17T17:04:36.489Z,11.07
2022-10-17T17:07:04.791Z,10.25
2022-10-17T17:09:34.126Z,10.57
2022-10-17T17:12:02.111Z,10.57
2022-10-17T17:14:30.085Z,11.02
2022-10-17T17:16:58.106Z,10.40
2022-10-17T17:19:26.208Z,10.85
2022-10-17T17:21:54.292Z,10.63
2022-10-17T17:24:22.446Z,10.30
2022-10-17T17:26:54.192Z,11.07
2022-10-17T17:29:22.990Z,10.45
2022-10-17T17:31:51.739Z,11.20
2022-10-17T17:34:19.835Z,11.68
2022-10-17T17:36:48.057Z,11.27
2022-10-17T17:39:17.046Z,10.77
2022-10-17T17:41:46.362Z,10.43
2022-10-17T17:44:16.990Z,10.60
2022-10-17T17:46:45.974Z,11.20
2022-10-17T17:49:13.996Z,10.75
2022-10-17T17:51:46.171Z,11.68
2022-10-17T17:54:14.386Z,11.07
2022-10-17T17:56:42.453Z,11.40
2022-10-17T17:59:12.805Z,10.10
2022-10-17T18:01:42.243Z,10.95
2022-10-17T18:04:10.455Z,11.07
2022-10-17T18:06:39.539Z,10.65
2022-10-17T18:09:09.130Z,11.13
2022-10-17T18:11:37.994Z,10.95
2022-10-17T18:14:07.940Z,10.93
2022-10-17T18:16:37.322Z,11.23
2022-10-17T18:19:09.710Z,10.40
2022-10-17T18:21:38.486Z,10.18
2022-10-17T18:24:07.406Z,9.63
2022-10-17T18:26:36.047Z,10.10
2022-10-17T18:29:04.180Z,10.23
2022-10-17T18:31:35.972Z,10.88
2022-10-17T18:34:06.949Z,12.40
2022-10-17T18:36:37.235Z,12.18
2022-10-17T18:39:06.561Z,12.15
2022-10-17T18:41:34.884Z,12.23
2022-10-17T18:44:04.038Z,12.80
2022-10-17T18:46:35.995Z,11.73
2022-10-17T18:49:04.141Z,11.85
2022-10-17T18:51:33.686Z,12.18
2022-10-17T18:54:03.065Z,11.93
2022-10-17T18:56:32.398Z,11.80
2022-10-17T18:59:00.445Z,13.25
2022-10-17T19:01:28.809Z,15.48
2022-10-17T19:03:58.745Z,14.35
2022-10-17T19:06:31.635Z,15.00
2022-10-17T19:09:02.150Z,14.55
2022-10-17T19:11:32.549Z,14.30
2022-10-17T19:14:05.138Z,14.35
2022-10-17T19:16:36.024Z,15.00
2022-10-17T19:19:07.043Z,14.30
2022-10-17T19:21:35.694Z,14.95
2022-10-17T19:24:07.454Z,15.05
2022-10-17T19:26:37.607Z,14.02
2022-10-17T19:29:06.462Z,14.75
2022-10-17T19:31:35.858Z,14.65
2022-10-17T19:34:04.202Z,14.15
2022-10-17T19:36:34.794Z,15.80
2022-10-17T19:39:06.234Z,15.90
2022-10-17T19:41:34.299Z,15.95
2022-10-17T19:44:02.627Z,16.02
2022-10-17T19:46:31.867Z,15.32
2022-10-17T19:48:59.879Z,14.15
2022-10-17T19:51:29.196Z,15.02
2022-10-17T19:54:00.359Z,15.75
2022-10-17T19:56:32.290Z,15.50
2022-10-17T19:59:00.501Z,16.13
2022-10-17T20:01:30.522Z,15.10
2022-10-17T20:03:58.672Z,14.48
2022-10-17T20:06:27.116Z,15.27
2022-10-17T20:08:55.328Z,14.32
2022-10-17T20:11:26.675Z,15.65
2022-10-17T20:13:57.239Z,14.95
2022-10-17T20:16:26.987Z,13.65
2022-10-17T20:18:57.787Z,14.43
2022-10-17T20:21:28.349Z,13.82
2022-10-17T20:23:56.456Z,14.38
2022-10-17T20:26:37.745Z,14.27
2022-10-17T20:29:11.828Z,13.27
2022-10-17T20:31:41.194Z,15.23
2022-10-17T20:34:11.037Z,16.90
2022-10-17T20:36:38.989Z,18.02
2022-10-17T20:39:07.764Z,18.08
2022-10-17T20:41:36.256Z,18.55
2022-10-17T20:44:04.918Z,18.02
2022-10-17T20:46:39.776Z,15.02
2022-10-17T20:49:14.110Z,15.35
2022-10-17T20:51:42.273Z,15.20
2022-10-17T20:54:10.525Z,14.52
2022-10-17T20:56:39.798Z,15.43
2022-10-17T20:59:12.226Z,14.68
2022-10-17T21:01:41.994Z,15.45
2022-10-17T21:04:40.327Z,15.82
2022-10-17T21:06:58.859Z,17.27
2022-10-17T21:09:27.170Z,16.90
2022-10-17T21:11:56.059Z,15.10
2022-10-17T21:14:25.461Z,14.35
2022-10-17T21:16:54.861Z,12.93
2022-10-17T21:19:23.068Z,13.07
2022-10-17T21:21:51.561Z,12.93
2022-10-17T21:24:20.821Z,12.73
2022-10-17T21:26:55.618Z,13.15
2022-10-17T21:29:24.595Z,13.32
2022-10-17T21:31:54.202Z,13.85
2022-10-17T21:34:25.154Z,14.30
2022-10-17T21:36:53.418Z,13.43
2022-10-17T21:39:24.209Z,13.13
2022-10-17T21:41:52.939Z,14.20
2022-10-17T21:44:23.383Z,14.43
2022-10-17T21:46:52.433Z,14.63
2022-10-17T21:49:24.171Z,15.10
2022-10-17T21:51:53.251Z,15.02
2022-10-17T21:54:23.011Z,14.43
2022-10-17T21:56:51.965Z,14.55
2022-10-17T21:59:20.069Z,13.93
2022-10-17T22:01:48.169Z,15.23
2022-10-17T22:04:18.201Z,15.73
2022-10-17T22:06:51.151Z,15.10
2022-10-17T22:09:22.091Z,14.07
2022-10-17T22:11:52.787Z,14.57
2022-10-17T22:14:22.218Z,15.38
2022-10-17T22:16:50.686Z,14.75
2022-10-17T22:19:20.891Z,15.57
2022-10-17T22:21:50.776Z,16.60
2022-10-17T22:26:53.416Z,18.23
2022-10-17T22:29:21.925Z,19.08
2022-10-17T22:31:49.983Z,18.70
2022-10-17T22:34:18.975Z,20.33
2022-10-17T22:36:47.820Z,20.20
2022-10-17T22:39:17.444Z,19.45
2022-10-17T22:41:45.522Z,19.48
2022-10-17T22:44:13.823Z,19.88
2022-10-17T22:46:41.737Z,20.40
2022-10-17T22:49:09.744Z,20.00
2022-10-17T22:51:37.692Z,19.05
2022-10-17T22:54:05.924Z,20.05
2022-10-17T22:56:35.235Z,19.40
2022-10-17T22:59:03.352Z,20.10
2022-10-17T23:01:31.345Z,19.30
2022-10-17T23:03:59.375Z,19.58
2022-10-17T23:06:27.378Z,19.37
2022-10-17T23:08:55.468Z,20.83
2022-10-17T23:11:23.486Z,19.38
2022-10-17T23:13:52.855Z,20.33
2022-10-17T23:16:20.809Z,19.83
2022-10-17T23:18:49.590Z,19.73
2022-10-17T23:21:17.648Z,18.33
2022-10-17T23:23:45.658Z,19.23
2022-10-17T23:26:15.082Z,19.60
2022-10-17T23:28:44.126Z,19.65
2022-10-17T23:31:15.769Z,19.50
2022-10-17T23:33:45.126Z,19.60
2022-10-17T23:36:14.787Z,19.50
2022-10-17T23:38:45.050Z,19.67
2022-10-17T23:41:13.942Z,19.03
2022-10-17T23:43:42.773Z,19.33
2022-10-17T23:46:11.610Z,19.43
2022-10-17T23:48:41.895Z,22.05
2022-10-17T23:51:11.049Z,21.70
2022-10-17T23:53:40.361Z,20.67
2022-10-17T23:56:09.309Z,20.35
2022-10-17T23:58:37.917Z,19.60
